Time;durP1;ratioP1;P1;durP2;ratioP2;P2;SDS_P1;SDS_P2;PMS_P1;PMS_P2;Temp;Humidity;BMP_temperature;BMP_pressure;BME280_temperature;BME280_humidity;BME280_pressure;Samples;Min_cycle;Max_cycle;Signal;HPM_P1;HPM_P2
2023/01/24 00:01:21;;;;;;;6.28;5.03;;;;;;;;;;5055609;28;20300;-85
2023/01/24 00:03:49;;;;;;;5.53;4.90;;;;;;;;;;5054901;28;20312;-85
2023/01/24 00:06:17;;;;;;;5.57;5.05;;;;;;;;;;5055629;28;20194;-86
2023/01/24 00:08:44;;;;;;;4.43;4.03;;;;;;;;;;5054641;28;20208;-84
2023/01/24 00:11:13;;;;;;;5.55;5.00;;;;;;;;;;5054755;28;20202;-85
2023/01/24 00:13:40;;;;;;;4.47;4.05;;;;;;;;;;5054771;28;20589;-85
2023/01/24 00:16:11;;;;;;;4.50;4.10;;;;;;;;;;5055460;28;20289;-84
2023/01/24 00:18:40;;;;;;;5.32;4.70;;;;;;;;;;5054684;28;20206;-84
2023/01/24 00:21:12;;;;;;;4.80;4.15;;;;;;;;;;5055004;28;20201;-85
2023/01/24 00:23:40;;;;;;;5.32;4.38;;;;;;;;;;5056537;28;20226;-87
2023/01/24 00:26:07;;;;;;;4.32;3.92;;;;;;;;;;5060567;28;20202;-86
2023/01/24 00:28:35;;;;;;;5.75;4.40;;;;;;;;;;5060513;28;20912;-87
2023/01/24 00:31:04;;;;;;;4.90;4.35;;;;;;;;;;5059479;28;20198;-86
2023/01/24 00:33:32;;;;;;;4.95;4.55;;;;;;;;;;5059101;28;20292;-87
2023/01/24 00:36:01;;;;;;;4.65;3.92;;;;;;;;;;5059333;28;20284;-87
2023/01/24 00:38:30;;;;;;;5.28;4.70;;;;;;;;;;5057865;28;20254;-88
2023/01/24 00:40:58;;;;;;;4.65;4.00;;;;;;;;;;5058687;28;20206;-88
2023/01/24 00:43:26;;;;;;;4.57;4.00;;;;;;;;;;5058466;28;20499;-86
2023/01/24 00:45:53;;;;;;;5.63;4.43;;;;;;;;;;5058532;28;20241;-88
2023/01/24 00:48:21;;;;;;;4.97;3.92;;;;;;;;;;5058804;28;20225;-87
2023/01/24 00:50:48;;;;;;;5.10;4.57;;;;;;;;;;5058667;28;20662;-88
2023/01/24 00:53:19;;;;;;;5.43;4.90;;;;;;;;;;5058926;28;20320;-88
2023/01/24 00:55:48;;;;;;;6.55;4.45;;;;;;;;;;5059366;28;20288;-87
2023/01/24 00:58:15;;;;;;;5.93;4.63;;;;;;;;;;5057936;28;20225;-87
2023/01/24 01:00:43;;;;;;;5.57;4.57;;;;;;;;;;5058699;28;20273;-87
2023/01/24 01:03:14;;;;;;;4.38;3.97;;;;;;;;;;5058306;28;20248;-88
2023/01/24 01:05:42;;;;;;;5.25;4.57;;;;;;;;;;5058449;28;20304;-88
2023/01/24 01:08:10;;;;;;;4.82;4.07;;;;;;;;;;5059275;28;20232;-88
2023/01/24 01:10:40;;;;;;;5.55;4.70;;;;;;;;;;5059030;28;20265;-87
2023/01/24 01:13:08;;;;;;;6.18;4.57;;;;;;;;;;5059218;28;20277;-87
2023/01/24 01:15:35;;;;;;;5.70;4.25;;;;;;;;;;5058904;28;20207;-87
2023/01/24 01:18:03;;;;;;;5.07;4.57;;;;;;;;;;5058190;28;20324;-87
2023/01/24 01:20:30;;;;;;;5.63;5.05;;;;;;;;;;5058491;28;20236;-87
2023/01/24 01:22:58;;;;;;;7.32;5.15;;;;;;;;;;5057908;28;20404;-87
2023/01/24 01:25:25;;;;;;;5.82;5.07;;;;;;;;;;5058679;28;20233;-87
2023/01/24 01:27:54;;;;;;;4.65;4.25;;;;;;;;;;5058475;28;20244;-86
2023/01/24 01:30:22;;;;;;;6.25;5.05;;;;;;;;;;5058208;28;20244;-87
2023/01/24 01:32:49;;;;;;;5.93;5.05;;;;;;;;;;5057914;28;20201;-86
2023/01/24 01:35:17;;;;;;;5.82;4.78;;;;;;;;;;5058198;28;20706;-87
2023/01/24 01:37:44;;;;;;;7.00;5.35;;;;;;;;;;5057811;28;20311;-88
2023/01/24 01:40:12;;;;;;;5.13;4.63;;;;;;;;;;5058286;28;20241;-86
2023/01/24 01:42:51;;;;;;;7.05;5.40;;;;;;;;;;5057020;28;20285;-88
2023/01/24 01:45:36;;;;;;;5.90;4.65;;;;;;;;;;5056975;28;20272;-87
2023/01/24 01:48:14;;;;;;;5.72;5.20;;;;;;;;;;5058795;28;20270;-86
2023/01/24 01:50:47;;;;;;;6.20;5.05;;;;;;;;;;5057921;28;20250;-87
2023/01/24 01:53:15;;;;;;;5.85;5.28;;;;;;;;;;5057926;28;20648;-87
2023/01/24 01:55:46;;;;;;;5.40;4.90;;;;;;;;;;5057579;28;20285;-87
2023/01/24 01:58:16;;;;;;;5.55;5.05;;;;;;;;;;5061212;28;20296;-86
2023/01/24 02:00:49;;;;;;;5.45;4.88;;;;;;;;;;5061240;28;20666;-87
2023/01/24 02:03:40;;;;;;;5.57;5.03;;;;;;;;;;5061309;28;20225;-86
2023/01/24 02:06:16;;;;;;;6.35;5.38;;;;;;;;;;5061064;28;20271;-86
2023/01/24 02:08:45;;;;;;;5.38;4.88;;;;;;;;;;5060838;28;20525;-86
2023/01/24 02:16:43;;;;;;;6.05;4.82;;;;;;;;;;5058925;28;20194;-87
2023/01/24 02:19:23;;;;;;;5.82;4.97;;;;;;;;;;5060889;28;20256;-87
2023/01/24 02:21:56;;;;;;;6.07;5.55;;;;;;;;;;5060515;28;20282;-85
2023/01/24 02:24:29;;;;;;;9.20;6.15;;;;;;;;;;5060784;28;20256;-87
2023/01/24 02:26:58;;;;;;;5.30;4.80;;;;;;;;;;5060517;28;20272;-86
2023/01/24 02:29:25;;;;;;;5.38;4.70;;;;;;;;;;5060893;28;20221;-85
2023/01/24 02:31:56;;;;;;;5.78;5.25;;;;;;;;;;5060434;28;20259;-88
2023/01/24 02:34:24;;;;;;;6.05;5.45;;;;;;;;;;5060496;28;20281;-84
2023/01/24 02:36:54;;;;;;;5.78;5.00;;;;;;;;;;5060079;28;20225;-86
2023/01/24 02:39:27;;;;;;;6.35;5.30;;;;;;;;;;5060201;28;20241;-87
2023/01/24 02:42:00;;;;;;;5.85;5.10;;;;;;;;;;5060163;28;20192;-86
2023/01/24 02:44:32;;;;;;;4.80;4.30;;;;;;;;;;5060448;28;20308;-85
2023/01/24 02:46:59;;;;;;;6.93;6.22;;;;;;;;;;5080357;28;20700;-86
2023/01/24 02:49:27;;;;;;;4.65;4.25;;;;;;;;;;5080446;28;20233;-87
2023/01/24 02:54:40;;;;;;;5.40;4.75;;;;;;;;;;5080122;28;20228;-86
2023/01/24 02:59:54;;;;;;;5.80;5.30;;;;;;;;;;5079776;28;20921;-87
2023/01/24 03:02:21;;;;;;;3.70;3.40;;;;;;;;;;5079234;28;20240;-86
2023/01/24 03:04:49;;;;;;;5.25;4.65;;;;;;;;;;5080053;28;20232;-86
2023/01/24 03:07:17;;;;;;;4.40;4.00;;;;;;;;;;5080668;28;20717;-87
2023/01/24 03:09:47;;;;;;;3.58;3.28;;;;;;;;;;5080738;28;20223;-88
2023/01/24 03:34:33;;;;;;;3.80;3.50;;;;;;;;;;5079938;28;20603;-87
2023/01/24 03:37:01;;;;;;;4.05;3.58;;;;;;;;;;5079699;28;20181;-88
2023/01/24 03:42:14;;;;;;;3.85;3.55;;;;;;;;;;5079313;28;20199;-87
2023/01/24 03:44:43;;;;;;;3.22;2.92;;;;;;;;;;5078648;28;20251;-87
2023/01/24 03:47:10;;;;;;;4.10;3.70;;;;;;;;;;5077917;28;20244;-87
2023/01/24 03:52:26;;;;;;;4.63;4.22;;;;;;;;;;5078686;28;20204;-87
2023/01/24 03:54:54;;;;;;;4.85;4.35;;;;;;;;;;5079044;28;20720;-88
2023/01/24 03:57:21;;;;;;;4.45;3.72;;;;;;;;;;5079039;28;20778;-86
2023/01/24 03:59:51;;;;;;;4.32;3.60;;;;;;;;;;5077927;28;20405;-85
2023/01/24 04:02:18;;;;;;;4.78;4.28;;;;;;;;;;5078460;28;20715;-87
2023/01/24 04:07:32;;;;;;;4.65;4.25;;;;;;;;;;5078032;28;20262;-88
2023/01/24 04:09:59;;;;;;;4.97;4.18;;;;;;;;;;5078249;28;20265;-87
2023/01/24 04:12:27;;;;;;;4.07;3.78;;;;;;;;;;5077174;28;20235;-87
2023/01/24 04:14:56;;;;;;;3.95;3.58;;;;;;;;;;5077784;28;20252;-86
2023/01/24 04:17:24;;;;;;;4.13;3.70;;;;;;;;;;5078171;28;20240;-86
2023/01/24 04:19:51;;;;;;;5.50;4.82;;;;;;;;;;5076832;28;20227;-86
2023/01/24 04:22:19;;;;;;;4.90;4.10;;;;;;;;;;5077488;28;20231;-86
2023/01/24 04:24:47;;;;;;;3.60;3.30;;;;;;;;;;5077841;28;20221;-86
2023/01/24 04:27:15;;;;;;;3.58;3.28;;;;;;;;;;5078575;28;20197;-86
2023/01/24 04:29:42;;;;;;;4.97;3.60;;;;;;;;;;5077920;28;20229;-87
2023/01/24 04:32:12;;;;;;;3.95;3.55;;;;;;;;;;5077110;28;20649;-86
2023/01/24 04:34:39;;;;;;;3.92;3.47;;;;;;;;;;5077298;28;20221;-86
2023/01/24 04:37:07;;;;;;;3.55;3.22;;;;;;;;;;5076297;28;20295;-86
2023/01/24 04:39:34;;;;;;;3.17;2.88;;;;;;;;;;5076853;28;20231;-88
2023/01/24 04:42:02;;;;;;;2.75;2.55;;;;;;;;;;5078433;28;20236;-88
2023/01/24 04:44:29;;;;;;;3.75;3.45;;;;;;;;;;5077815;28;20327;-87
2023/01/24 04:46:57;;;;;;;4.75;4.10;;;;;;;;;;5077327;28;20205;-88
2023/01/24 04:49:25;;;;;;;4.40;3.47;;;;;;;;;;5078212;28;20236;-87
2023/01/24 04:51:53;;;;;;;3.70;3.28;;;;;;;;;;5077803;28;20297;-87
2023/01/24 04:54:21;;;;;;;4.40;3.72;;;;;;;;;;5078190;28;20263;-87
2023/01/24 04:56:48;;;;;;;4.53;4.10;;;;;;;;;;5077876;28;20288;-87
2023/01/24 04:59:16;;;;;;;4.70;4.28;;;;;;;;;;5077574;28;20316;-88
2023/01/24 05:01:43;;;;;;;4.88;3.78;;;;;;;;;;5077476;28;20646;-87
2023/01/24 05:04:11;;;;;;;3.33;3.03;;;;;;;;;;5077798;28;20324;-87
2023/01/24 05:06:40;;;;;;;3.00;2.80;;;;;;;;;;5078156;28;20201;-87
2023/01/24 05:09:07;;;;;;;2.85;2.65;;;;;;;;;;5077787;28;20761;-86
2023/01/24 05:11:36;;;;;;;2.80;2.60;;;;;;;;;;5078065;28;20651;-87
2023/01/24 05:14:03;;;;;;;2.42;2.20;;;;;;;;;;5077805;28;20224;-86
2023/01/24 05:16:31;;;;;;;2.40;2.20;;;;;;;;;;5077410;28;20197;-86
2023/01/24 05:18:58;;;;;;;3.28;2.97;;;;;;;;;;5076566;28;20208;-86
2023/01/24 05:21:26;;;;;;;2.78;2.58;;;;;;;;;;5077214;28;20224;-85
2023/01/24 05:23:55;;;;;;;2.58;2.38;;;;;;;;;;5076902;28;20270;-87
2023/01/24 05:26:24;;;;;;;2.63;2.42;;;;;;;;;;5076917;28;20221;-86
2023/01/24 05:28:52;;;;;;;3.78;3.38;;;;;;;;;;5077856;28;20237;-86
2023/01/24 05:31:20;;;;;;;3.40;3.10;;;;;;;;;;5080625;28;20228;-87
2023/01/24 05:33:48;;;;;;;4.05;3.75;;;;;;;;;;5081412;28;20311;-85
2023/01/24 05:36:18;;;;;;;4.15;3.75;;;;;;;;;;5079126;28;20197;-87
2023/01/24 05:38:46;;;;;;;3.50;3.00;;;;;;;;;;5078926;28;20267;-85
2023/01/24 05:41:17;;;;;;;3.63;3.33;;;;;;;;;;5078799;28;20312;-86
2023/01/24 05:43:45;;;;;;;3.03;2.67;;;;;;;;;;5081770;28;20209;-88
2023/01/24 05:46:15;;;;;;;3.60;3.30;;;;;;;;;;5082868;28;20243;-88
2023/01/24 05:48:43;;;;;;;3.60;3.30;;;;;;;;;;5082831;28;20664;-88
2023/01/24 05:51:14;;;;;;;3.90;3.55;;;;;;;;;;5082762;28;20233;-88
2023/01/24 05:53:43;;;;;;;4.15;3.75;;;;;;;;;;5082652;28;20264;-88
2023/01/24 05:56:14;;;;;;;3.13;2.78;;;;;;;;;;5082247;28;20201;-88
2023/01/24 05:58:43;;;;;;;3.40;3.08;;;;;;;;;;5082522;28;20272;-88
2023/01/24 06:01:15;;;;;;;3.40;3.10;;;;;;;;;;5082687;28;20221;-88
2023/01/24 06:03:43;;;;;;;3.78;3.47;;;;;;;;;;5079774;28;20646;-85
2023/01/24 06:06:12;;;;;;;3.92;3.53;;;;;;;;;;5079013;28;20193;-87
2023/01/24 06:08:40;;;;;;;3.35;3.00;;;;;;;;;;5079523;28;20300;-88
2023/01/24 06:11:12;;;;;;;3.40;3.15;;;;;;;;;;5080970;28;20287;-88
2023/01/24 06:13:41;;;;;;;4.15;3.75;;;;;;;;;;5081284;28;20232;-87
2023/01/24 06:16:13;;;;;;;4.75;4.35;;;;;;;;;;5081089;28;20232;-87
2023/01/24 06:18:41;;;;;;;4.15;3.75;;;;;;;;;;5079280;28;20285;-87
2023/01/24 06:21:14;;;;;;;8.82;3.70;;;;;;;;;;5078621;28;20296;-85
2023/01/24 06:23:42;;;;;;;3.92;3.35;;;;;;;;;;5092117;22;20212;-84
2023/01/24 06:26:11;;;;;;;4.28;3.90;;;;;;;;;;5074168;28;20193;-84
2023/01/24 06:28:40;;;;;;;5.18;3.20;;;;;;;;;;5073259;28;20197;-85
2023/01/24 06:31:22;;;;;;;3.42;3.08;;;;;;;;;;5074106;28;20207;-85
2023/01/24 06:34:09;;;;;;;3.92;3.63;;;;;;;;;;5129455;22;20320;-81
2023/01/24 06:36:51;;;;;;;4.35;3.95;;;;;;;;;;5117211;27;20199;-79
2023/01/24 06:39:20;;;;;;;4.05;3.60;;;;;;;;;;5106815;28;20192;-81
2023/01/24 06:41:48;;;;;;;4.30;3.90;;;;;;;;;;5099721;28;20225;-81
2023/01/24 06:44:18;;;;;;;4.35;3.95;;;;;;;;;;5082844;28;20225;-80
2023/01/24 06:46:45;;;;;;;3.63;3.38;;;;;;;;;;5079638;28;20778;-80
2023/01/24 06:49:13;;;;;;;4.20;3.80;;;;;;;;;;5096423;28;20287;-81
2023/01/24 06:51:40;;;;;;;3.97;3.60;;;;;;;;;;5088762;28;20640;-79
2023/01/24 06:54:08;;;;;;;4.05;3.75;;;;;;;;;;5095323;28;20234;-81
2023/01/24 06:56:35;;;;;;;5.60;4.20;;;;;;;;;;5095690;28;20314;-81
2023/01/24 06:59:03;;;;;;;4.68;4.28;;;;;;;;;;5085889;28;20200;-82
2023/01/24 07:01:32;;;;;;;5.18;4.68;;;;;;;;;;5079491;28;20224;-81
2023/01/24 07:03:59;;;;;;;4.78;4.03;;;;;;;;;;5075236;28;20304;-81
2023/01/24 07:06:26;;;;;;;4.50;4.07;;;;;;;;;;5075273;28;20287;-81
2023/01/24 07:08:54;;;;;;;4.55;4.15;;;;;;;;;;5074241;28;20288;-80
2023/01/24 07:11:22;;;;;;;4.00;3.70;;;;;;;;;;5075139;28;20193;-83
2023/01/24 07:13:50;;;;;;;4.70;4.30;;;;;;;;;;5075038;28;20225;-82
2023/01/24 07:16:17;;;;;;;4.15;3.65;;;;;;;;;;5075035;28;20197;-82
2023/01/24 07:18:47;;;;;;;3.97;3.67;;;;;;;;;;5092141;28;20200;-80
2023/01/24 07:21:15;;;;;;;4.32;3.92;;;;;;;;;;5094541;28;20220;-80
2023/01/24 07:23:45;;;;;;;3.83;3.53;;;;;;;;;;5095013;28;20216;-81
2023/01/24 07:26:14;;;;;;;4.80;4.03;;;;;;;;;;5094606;28;20196;-81
2023/01/24 07:28:41;;;;;;;3.85;3.55;;;;;;;;;;5094514;28;20295;-81
2023/01/24 07:31:11;;;;;;;4.43;3.97;;;;;;;;;;5094599;28;20247;-80
2023/01/24 07:33:38;;;;;;;5.05;3.75;;;;;;;;;;5094157;28;20230;-81
2023/01/24 07:36:15;;;;;;;4.50;4.10;;;;;;;;;;5095279;28;20287;-81
2023/01/24 07:38:43;;;;;;;4.53;3.53;;;;;;;;;;5093764;28;20206;-81
2023/01/24 07:41:11;;;;;;;4.40;4.00;;;;;;;;;;5094298;28;20230;-81
2023/01/24 07:43:38;;;;;;;3.85;3.55;;;;;;;;;;5094425;28;20226;-81
2023/01/24 07:46:06;;;;;;;5.00;4.53;;;;;;;;;;5094494;28;20305;-82
2023/01/24 07:48:33;;;;;;;4.50;3.85;;;;;;;;;;5093314;28;20338;-79
2023/01/24 07:51:02;;;;;;;4.30;3.90;;;;;;;;;;5094362;28;20665;-80
2023/01/24 07:53:30;;;;;;;4.50;4.13;;;;;;;;;;5093270;28;20255;-79
2023/01/24 07:56:00;;;;;;;6.75;4.78;;;;;;;;;;5093822;28;20196;-81
2023/01/24 07:58:28;;;;;;;5.30;4.90;;;;;;;;;;5093400;28;20291;-81
2023/01/24 08:00:55;;;;;;;5.00;4.32;;;;;;;;;;5093892;28;20690;-81
2023/01/24 08:03:23;;;;;;;5.13;4.47;;;;;;;;;;5093956;28;20220;-81
2023/01/24 08:05:50;;;;;;;5.20;4.70;;;;;;;;;;5093648;28;20200;-81
2023/01/24 08:08:18;;;;;;;4.95;4.45;;;;;;;;;;5093221;28;20204;-80
2023/01/24 08:10:47;;;;;;;5.72;5.22;;;;;;;;;;5094017;28;20201;-81
2023/01/24 08:13:14;;;;;;;5.97;5.07;;;;;;;;;;5093853;28;20220;-81
2023/01/24 08:15:42;;;;;;;4.53;4.13;;;;;;;;;;5093787;28;20886;-82
2023/01/24 08:18:09;;;;;;;6.57;5.00;;;;;;;;;;5093027;28;20200;-82
2023/01/24 08:20:36;;;;;;;5.93;5.32;;;;;;;;;;5093635;28;20204;-82
2023/01/24 08:23:04;;;;;;;6.78;6.13;;;;;;;;;;5093876;28;20687;-81
2023/01/24 08:25:31;;;;;;;6.00;5.40;;;;;;;;;;5093548;28;20291;-82
2023/01/24 08:28:00;;;;;;;5.70;5.15;;;;;;;;;;5092751;28;20336;-81
2023/01/24 08:30:28;;;;;;;6.57;5.97;;;;;;;;;;5093295;28;20879;-83
2023/01/24 08:33:02;;;;;;;5.88;5.38;;;;;;;;;;5093172;28;20228;-82
2023/01/24 08:35:31;;;;;;;5.90;5.40;;;;;;;;;;5093202;28;20709;-81
2023/01/24 08:37:58;;;;;;;5.93;5.35;;;;;;;;;;5092598;28;20287;-80
2023/01/24 08:40:26;;;;;;;6.05;5.45;;;;;;;;;;5094525;28;20760;-82
2023/01/24 08:42:53;;;;;;;6.35;5.78;;;;;;;;;;5094085;28;20710;-81
2023/01/24 08:45:22;;;;;;;5.45;5.00;;;;;;;;;;5093998;28;20224;-81
2023/01/24 08:47:53;;;;;;;5.65;5.15;;;;;;;;;;5091855;28;20235;-80
2023/01/24 08:50:21;;;;;;;6.47;5.88;;;;;;;;;;5093787;28;20283;-82
2023/01/24 08:52:48;;;;;;;6.78;6.05;;;;;;;;;;5093458;28;20216;-82
2023/01/24 08:55:16;;;;;;;6.72;6.05;;;;;;;;;;5091999;28;20196;-83
2023/01/24 08:57:44;;;;;;;6.93;6.13;;;;;;;;;;5092981;28;20204;-83
2023/01/24 09:00:13;;;;;;;6.35;5.75;;;;;;;;;;5091884;28;20258;-82
2023/01/24 09:02:42;;;;;;;6.82;6.22;;;;;;;;;;5091198;28;20307;-81
2023/01/24 09:05:10;;;;;;;7.63;6.97;;;;;;;;;;5091717;28;20287;-81
2023/01/24 09:07:40;;;;;;;7.05;6.28;;;;;;;;;;5090507;28;20676;-83
2023/01/24 09:10:09;;;;;;;6.97;6.38;;;;;;;;;;5087847;28;20676;-82
2023/01/24 09:12:36;;;;;;;7.30;6.70;;;;;;;;;;5092024;28;20311;-82
2023/01/24 09:15:05;;;;;;;7.32;6.30;;;;;;;;;;5092058;28;20290;-83
2023/01/24 09:17:34;;;;;;;7.32;6.63;;;;;;;;;;5090968;28;20647;-80
2023/01/24 09:20:03;;;;;;;6.95;6.25;;;;;;;;;;5091234;28;20232;-83
2023/01/24 09:22:30;;;;;;;7.75;6.95;;;;;;;;;;5091462;28;20600;-81
2023/01/24 09:24:58;;;;;;;6.60;5.97;;;;;;;;;;5091738;28;20200;-81
2023/01/24 09:27:25;;;;;;;7.78;7.07;;;;;;;;;;5091552;28;20200;-81
2023/01/24 09:29:53;;;;;;;9.07;6.75;;;;;;;;;;5091600;28;20200;-83
2023/01/24 09:32:20;;;;;;;8.52;7.35;;;;;;;;;;5090979;28;20746;-80
2023/01/24 09:34:48;;;;;;;8.40;7.60;;;;;;;;;;5092046;28;20283;-82
2023/01/24 09:37:19;;;;;;;7.57;6.85;;;;;;;;;;5091129;28;20667;-82
2023/01/24 09:39:47;;;;;;;7.55;6.30;;;;;;;;;;5092208;28;20214;-82
2023/01/24 09:42:26;;;;;;;6.80;6.20;;;;;;;;;;5093211;28;20779;-82
2023/01/24 09:45:00;;;;;;;7.28;6.60;;;;;;;;;;5092550;28;20200;-81
2023/01/24 09:47:34;;;;;;;7.93;7.22;;;;;;;;;;5091278;28;20212;-82
2023/01/24 09:50:06;;;;;;;8.05;6.93;;;;;;;;;;5091277;28;20212;-80
2023/01/24 09:52:38;;;;;;;6.88;6.22;;;;;;;;;;5091109;28;20220;-82
2023/01/24 09:55:10;;;;;;;7.15;6.45;;;;;;;;;;5091413;28;20205;-82
2023/01/24 09:57:50;;;;;;;6.72;6.03;;;;;;;;;;5091268;28;20200;-82
2023/01/24 10:00:22;;;;;;;7.53;6.28;;;;;;;;;;5090439;28;20204;-83
2023/01/24 10:02:49;;;;;;;7.00;6.30;;;;;;;;;;5091331;28;20232;-82
2023/01/24 10:05:18;;;;;;;7.78;6.75;;;;;;;;;;5091264;28;20291;-81
2023/01/24 10:08:07;;;;;;;6.82;6.13;;;;;;;;;;5091288;28;20200;-82
2023/01/24 10:10:46;;;;;;;7.53;6.38;;;;;;;;;;5090967;28;20206;-81
2023/01/24 10:13:53;;;;;;;7.18;6.47;;;;;;;;;;5091022;28;20579;-81
2023/01/24 10:16:56;;;;;;;7.88;7.07;;;;;;;;;;5091500;28;20720;-82
2023/01/24 10:19:44;;;;;;;7.10;5.88;;;;;;;;;;5073838;28;20211;-81
2023/01/24 10:22:25;;;;;;;7.55;6.78;;;;;;;;;;5074468;28;20673;-81
2023/01/24 10:24:58;;;;;;;8.25;7.20;;;;;;;;;;5074706;28;20286;-83
2023/01/24 10:27:31;;;;;;;8.48;6.30;;;;;;;;;;5074869;28;20201;-81
2023/01/24 10:30:01;;;;;;;8.02;6.68;;;;;;;;;;5094008;28;20204;-82
2023/01/24 10:32:34;;;;;;;9.27;7.35;;;;;;;;;;5094559;28;20224;-83
2023/01/24 10:35:12;;;;;;;8.10;6.80;;;;;;;;;;5094434;28;20203;-80
2023/01/24 10:37:44;;;;;;;6.80;6.10;;;;;;;;;;5094128;28;20204;-80
2023/01/24 10:40:15;;;;;;;10.45;6.28;;;;;;;;;;5093927;28;20214;-81
2023/01/24 10:42:43;;;;;;;7.88;6.60;;;;;;;;;;5094185;28;20234;-82
2023/01/24 10:45:36;;;;;;;9.00;7.95;;;;;;;;;;5094196;28;20204;-82
2023/01/24 10:48:07;;;;;;;8.00;7.28;;;;;;;;;;5093167;28;20206;-82
2023/01/24 10:50:41;;;;;;;7.15;6.50;;;;;;;;;;5094532;28;20684;-82
2023/01/24 10:53:14;;;;;;;7.55;6.75;;;;;;;;;;5093256;28;20315;-81
2023/01/24 10:55:43;;;;;;;9.05;8.15;;;;;;;;;;5093886;28;20201;-81
2023/01/24 10:58:23;;;;;;;7.35;6.55;;;;;;;;;;5092702;28;20215;-83
2023/01/24 11:00:58;;;;;;;6.78;6.07;;;;;;;;;;5094148;28;20235;-81
2023/01/24 11:03:29;;;;;;;9.05;7.13;;;;;;;;;;5093773;28;20231;-82
2023/01/24 11:05:58;;;;;;;8.52;7.15;;;;;;;;;;5093837;28;20232;-82
2023/01/24 11:08:33;;;;;;;8.43;5.97;;;;;;;;;;5093221;28;20210;-82
2023/01/24 11:11:03;;;;;;;7.85;6.60;;;;;;;;;;5094190;28;20612;-81
2023/01/24 11:13:36;;;;;;;8.82;6.88;;;;;;;;;;5093177;28;20220;-80
2023/01/24 11:16:07;;;;;;;7.60;6.72;;;;;;;;;;5093857;28;20223;-80
2023/01/24 11:18:36;;;;;;;5.75;5.10;;;;;;;;;;5092083;28;20226;-81
2023/01/24 11:21:12;;;;;;;7.00;6.15;;;;;;;;;;5092993;28;20663;-81
2023/01/24 11:23:40;;;;;;;7.68;6.78;;;;;;;;;;5093362;28;20270;-81
2023/01/24 11:26:23;;;;;;;8.40;7.40;;;;;;;;;;5093319;28;20210;-82
2023/01/24 11:28:59;;;;;;;10.85;8.15;;;;;;;;;;5092041;28;20196;-80
2023/01/24 11:31:33;;;;;;;7.20;6.47;;;;;;;;;;5093049;28;20211;-81
2023/01/24 11:34:41;;;;;;;8.05;7.22;;;;;;;;;;5092329;28;20239;-81
2023/01/24 11:37:28;;;;;;;7.05;5.88;;;;;;;;;;5079054;28;20211;-83
2023/01/24 11:40:06;;;;;;;6.55;5.85;;;;;;;;;;5092231;28;20214;-81
2023/01/24 11:42:37;;;;;;;7.65;6.75;;;;;;;;;;5092984;28;20215;-79
2023/01/24 11:45:29;;;;;;;8.70;6.40;;;;;;;;;;5092645;28;20307;-81
2023/01/24 11:48:09;;;;;;;8.52;6.80;;;;;;;;;;5092442;28;20204;-81
2023/01/24 11:50:46;;;;;;;7.80;6.88;;;;;;;;;;5093053;28;20200;-80
2023/01/24 11:53:38;;;;;;;6.70;5.93;;;;;;;;;;5092743;28;20750;-81
2023/01/24 11:56:16;;;;;;;7.97;6.30;;;;;;;;;;5092979;28;20230;-81
2023/01/24 11:59:01;;;;;;;7.20;6.47;;;;;;;;;;5092698;28;20810;-81
2023/01/24 12:01:40;;;;;;;7.03;6.00;;;;;;;;;;5093323;28;20218;-81
2023/01/24 12:04:48;;;;;;;6.78;6.05;;;;;;;;;;5092610;28;20224;-81
2023/01/24 12:07:22;;;;;;;6.57;5.75;;;;;;;;;;5030306;28;20206;-80
2023/01/24 12:09:55;;;;;;;6.72;5.57;;;;;;;;;;5084646;28;20204;-80
2023/01/24 12:12:28;;;;;;;6.50;5.90;;;;;;;;;;5093397;28;20204;-80
2023/01/24 12:15:29;;;;;;;8.48;7.57;;;;;;;;;;5093135;28;20219;-81
2023/01/24 12:18:20;;;;;;;7.45;6.60;;;;;;;;;;5057985;28;20299;-80
2023/01/24 12:21:07;;;;;;;7.72;6.97;;;;;;;;;;5092547;28;20744;-81
2023/01/24 12:23:42;;;;;;;7.38;6.68;;;;;;;;;;5092587;28;20240;-80
2023/01/24 12:26:15;;;;;;;6.00;5.38;;;;;;;;;;5092519;28;20199;-80
2023/01/24 12:28:51;;;;;;;7.05;6.35;;;;;;;;;;5091709;28;20295;-80
2023/01/24 12:31:28;;;;;;;7.10;6.20;;;;;;;;;;5092253;28;20195;-80
2023/01/24 12:34:01;;;;;;;7.05;6.35;;;;;;;;;;5105216;22;20251;-87
2023/01/24 12:36:37;;;;;;;8.23;7.20;;;;;;;;;;5072148;28;20203;-86
2023/01/24 12:39:14;;;;;;;7.10;6.20;;;;;;;;;;5071046;28;20683;-87
2023/01/24 12:41:42;;;;;;;6.78;6.10;;;;;;;;;;5072077;28;20746;-86
2023/01/24 12:44:26;;;;;;;8.48;7.50;;;;;;;;;;5072070;28;20311;-86
2023/01/24 12:47:10;;;;;;;7.70;5.85;;;;;;;;;;5072944;28;20279;-86
2023/01/24 12:49:45;;;;;;;8.32;7.53;;;;;;;;;;5068893;28;20215;-87
2023/01/24 12:52:22;;;;;;;7.10;6.40;;;;;;;;;;5073578;28;20181;-87
2023/01/24 12:54:54;;;;;;;7.43;6.55;;;;;;;;;;5072494;28;20724;-86
2023/01/24 12:57:26;;;;;;;7.13;6.43;;;;;;;;;;5073344;28;20181;-87
2023/01/24 12:59:55;;;;;;;10.95;6.68;;;;;;;;;;5052719;28;20186;-86
2023/01/24 13:03:06;;;;;;;9.50;7.90;;;;;;;;;;5053301;28;20741;-86
2023/01/24 13:05:45;;;;;;;10.18;7.70;;;;;;;;;;5052700;28;20228;-86
2023/01/24 13:08:24;;;;;;;7.82;6.50;;;;;;;;;;5052277;28;20645;-87
2023/01/24 13:11:07;;;;;;;7.45;6.75;;;;;;;;;;5052686;28;20192;-87
2023/01/24 13:13:41;;;;;;;8.57;7.05;;;;;;;;;;5052323;28;20251;-87
2023/01/24 13:17:05;;;;;;;7.18;6.47;;;;;;;;;;5051462;28;20669;-87
2023/01/24 13:20:02;;;;;;;6.28;5.63;;;;;;;;;;4969817;28;20219;-87
2023/01/24 13:22:52;;;;;;;8.40;6.85;;;;;;;;;;4970579;28;20215;-87
2023/01/24 13:25:44;;;;;;;8.15;7.20;;;;;;;;;;5034598;28;20228;-87
2023/01/24 13:28:19;;;;;;;7.13;6.43;;;;;;;;;;5057259;28;20201;-87
2023/01/24 13:30:54;;;;;;;8.93;6.88;;;;;;;;;;5071306;28;20204;-87
2023/01/24 13:33:29;;;;;;;6.53;5.82;;;;;;;;;;5070813;28;20307;-87
2023/01/24 13:35:58;;;;;;;7.15;6.28;;;;;;;;;;5071308;28;20207;-87
2023/01/24 13:38:27;;;;;;;9.18;5.93;;;;;;;;;;5070813;28;20288;-87
2023/01/24 13:41:01;;;;;;;6.75;6.00;;;;;;;;;;5071079;28;20204;-87
2023/01/24 13:43:59;;;;;;;6.28;5.68;;;;;;;;;;5071350;28;20224;-87
2023/01/24 13:47:00;;;;;;;7.82;7.05;;;;;;;;;;5036982;28;20589;-87
2023/01/24 13:49:40;;;;;;;6.50;5.80;;;;;;;;;;5050385;28;20206;-87
2023/01/24 13:52:41;;;;;;;5.95;5.35;;;;;;;;;;5058311;28;20224;-88
2023/01/24 13:56:00;;;;;;;6.20;5.57;;;;;;;;;;5056048;28;20662;-87
2023/01/24 13:58:30;;;;;;;5.90;5.30;;;;;;;;;;5021445;28;20347;-87
2023/01/24 14:01:00;;;;;;;4.72;4.32;;;;;;;;;;5066798;28;20208;-87
2023/01/24 14:03:32;;;;;;;5.60;4.63;;;;;;;;;;5075636;28;20266;-86
2023/01/24 14:06:10;;;;;;;5.43;4.93;;;;;;;;;;5077194;28;20325;-86
2023/01/24 14:09:03;;;;;;;6.13;5.05;;;;;;;;;;5073689;28;20327;-87
2023/01/24 14:11:51;;;;;;;6.95;6.22;;;;;;;;;;5074721;28;20236;-87
2023/01/24 14:14:38;;;;;;;6.35;5.45;;;;;;;;;;5074914;28;20717;-87
2023/01/24 14:17:43;;;;;;;6.88;5.47;;;;;;;;;;5074505;28;20233;-87
2023/01/24 14:20:20;;;;;;;6.80;5.93;;;;;;;;;;5072103;28;20212;-87
2023/01/24 14:22:53;;;;;;;5.45;4.95;;;;;;;;;;5074206;28;20251;-87
2023/01/24 14:25:38;;;;;;;4.43;4.03;;;;;;;;;;5074033;28;20235;-87
2023/01/24 14:28:20;;;;;;;5.47;4.97;;;;;;;;;;5073567;28;20205;-87
2023/01/24 14:30:50;;;;;;;4.63;4.03;;;;;;;;;;5074116;28;20641;-87
2023/01/24 14:33:29;;;;;;;5.07;4.57;;;;;;;;;;5073819;28;20256;-87
2023/01/24 14:36:07;;;;;;;5.53;4.78;;;;;;;;;;5074118;28;20203;-87
2023/01/24 14:38:34;;;;;;;6.38;5.65;;;;;;;;;;5073859;28;20212;-87
2023/01/24 14:41:04;;;;;;;5.50;5.00;;;;;;;;;;5073864;28;20296;-87
2023/01/24 14:43:39;;;;;;;6.15;4.72;;;;;;;;;;5073495;28;20704;-87
2023/01/24 14:46:16;;;;;;;5.53;5.00;;;;;;;;;;5073717;28;20225;-86
2023/01/24 14:48:43;;;;;;;4.78;4.20;;;;;;;;;;5073262;28;20214;-87
2023/01/24 14:51:18;;;;;;;4.90;4.45;;;;;;;;;;5073627;28;20636;-87
2023/01/24 14:53:50;;;;;;;4.57;3.75;;;;;;;;;;5073164;28;20704;-87
2023/01/24 14:56:19;;;;;;;4.95;4.50;;;;;;;;;;5073412;28;20200;-87
2023/01/24 14:58:48;;;;;;;5.03;4.53;;;;;;;;;;5072972;28;20209;-87
2023/01/24 15:01:33;;;;;;;4.63;4.07;;;;;;;;;;5073924;28;20656;-87
2023/01/24 15:04:00;;;;;;;4.60;3.17;;;;;;;;;;5072735;28;20263;-87
2023/01/24 15:06:29;;;;;;;5.25;4.75;;;;;;;;;;5073470;28;20228;-87
2023/01/24 15:08:59;;;;;;;4.30;3.97;;;;;;;;;;5073019;28;20224;-87
2023/01/24 15:11:30;;;;;;;4.25;3.85;;;;;;;;;;5073404;28;20204;-87
2023/01/24 15:13:59;;;;;;;4.47;4.07;;;;;;;;;;5073676;28;20231;-87
2023/01/24 15:16:35;;;;;;;6.25;4.50;;;;;;;;;;5073074;28;20200;-87
2023/01/24 15:19:11;;;;;;;3.33;3.03;;;;;;;;;;5053140;28;20193;-87
2023/01/24 15:21:40;;;;;;;3.67;3.25;;;;;;;;;;5053814;28;20205;-87
2023/01/24 15:24:18;;;;;;;3.25;2.95;;;;;;;;;;5053184;28;20231;-88
2023/01/24 15:26:47;;;;;;;4.93;4.43;;;;;;;;;;5053262;28;20604;-87
2023/01/24 15:29:42;;;;;;;4.28;3.72;;;;;;;;;;5067558;28;20251;-87
2023/01/24 15:32:31;;;;;;;6.30;5.53;;;;;;;;;;5074012;28;20233;-87
2023/01/24 15:35:33;;;;;;;5.55;5.00;;;;;;;;;;5073896;28;20721;-87
2023/01/24 15:38:22;;;;;;;9.77;7.35;;;;;;;;;;5073655;28;20213;-87
2023/01/24 15:41:14;;;;;;;5.68;4.90;;;;;;;;;;5074507;28;20197;-87
2023/01/24 15:43:56;;;;;;;3.75;3.40;;;;;;;;;;5074275;28;20221;-87
2023/01/24 15:49:30;;;;;;;4.10;3.47;;;;;;;;;;5053582;28;20701;-88
2023/01/24 15:52:28;;;;;;;4.13;3.75;;;;;;;;;;5054501;28;20200;-85
2023/01/24 15:54:58;;;;;;;3.55;3.25;;;;;;;;;;5050261;28;20300;-86
2023/01/24 15:57:30;;;;;;;3.90;3.60;;;;;;;;;;5054793;28;20273;-85
2023/01/24 16:00:04;;;;;;;4.80;4.35;;;;;;;;;;5073954;28;20197;-89
2023/01/24 16:02:31;;;;;;;4.97;4.38;;;;;;;;;;5074364;28;20184;-87